Impacts METAR Board
IDs:

KATT - Austin/Camp Mabry(NG, TX, US

Updated at: 0100 UTC 20 Sep 2020
Potential Impact None Slight Moderate High
Time 19/13Z 19/14Z 19/15Z 19/16Z 19/17Z 19/18Z 19/19Z 19/20Z 19/21Z 19/22Z 19/23Z 20/00Z 20/01Z
Temp69 82 84 85 84 83 81 78
Dewpt62 61 61 58 57 57 55 54
Altim30.10 30.08 30.06 30.04 30.02 30.03 30.03 30.05
VIS6 10 10 10 9 9 8 9
CIG-- -- -- -- -- -- -- --
CoverCLRSCTFEWCLRCLRCLRCLRCLR
FltCatVFRVFRVFRVFRVFRVFRVFRVFR
WXHZ--------------
WDir3020205010201040
WSpd4 9 10 8 8 8 9 4
WGst-- 15 18 19 18 -- 15 --
Raw hourly METARs
KATT 191251Z AUTO 03004KT 6SM HZ CLR 21/17 A3010 RMK AO2 SLP182 T02060167





KATT 191851Z AUTO 02009G15KT 10SM SCT042 28/16 A3008 RMK AO2 SLP175 T02780161
KATT 191951Z AUTO 02010G18KT 10SM FEW045 29/16 A3006 RMK AO2 SLP166 T02890161
KATT 192051Z AUTO 05008G19KT 010V090 10SM CLR 29/14 A3004 RMK AO2 SLP159 T02940144 56024
KATT 192151Z AUTO 01008G18KT 9SM CLR 29/14 A3002 RMK AO2 SLP154 T02890139
KATT 192251Z AUTO 02008KT 350V060 9SM CLR 28/14 A3003 RMK AO2 SLP157 T02830139
KATT 192351Z AUTO 01009G15KT 8SM CLR 27/13 A3003 RMK AO2 SLP158 T02720128 10294 20267 56003
KATT 200051Z AUTO 04004KT 9SM CLR 26/12 A3005 RMK AO2 SLP164 T02560122



Page loaded:  01:46 UTC  |   06:46 PM Pacific  |   07:46 PM Mountain  |   08:46 PM Central  |   09:46 PM Eastern

 

ADVISORIES

FORECASTS

FORECASTS

OBSERVATIONS

USER TOOLS

ABOUT US